createdAt,value
2023-05-08T00:02:14.813Z,9.40
2023-05-08T00:04:43.073Z,7.60
2023-05-08T00:07:11.355Z,10.13
2023-05-08T00:09:39.404Z,7.65
2023-05-08T00:12:07.714Z,7.88
2023-05-08T00:14:36.187Z,7.57
2023-05-08T00:17:04.504Z,8.38
2023-05-08T00:19:33.987Z,8.75
2023-05-08T00:22:02.088Z,6.80
2023-05-08T00:24:30.183Z,8.77
2023-05-08T00:26:58.312Z,7.75
2023-05-08T00:29:26.677Z,7.20
2023-05-08T00:31:54.916Z,7.15
2023-05-08T00:34:23.186Z,7.07
2023-05-08T00:36:52.820Z,7.50
2023-05-08T00:39:21.095Z,7.53
2023-05-08T00:41:49.162Z,7.50
2023-05-08T00:44:17.599Z,7.97
2023-05-08T00:46:47.341Z,8.57
2023-05-08T00:49:17.050Z,7.53
2023-05-08T00:51:47.881Z,7.78
2023-05-08T00:54:17.640Z,8.77
2023-05-08T00:56:47.399Z,7.47
2023-05-08T00:59:17.809Z,7.35
2023-05-08T01:01:47.611Z,6.65
2023-05-08T01:04:16.257Z,6.70
2023-05-08T01:06:44.513Z,7.15
2023-05-08T01:09:12.703Z,7.65
2023-05-08T01:11:50.765Z,7.72
2023-05-08T01:14:26.443Z,6.80
2023-05-08T01:17:06.318Z,8.90
2023-05-08T01:20:04.583Z,7.72
2023-05-08T01:22:58.880Z,8.05
2023-05-08T01:26:11.270Z,6.75
2023-05-08T01:29:17.166Z,6.65
2023-05-08T01:32:10.202Z,8.25
2023-05-08T01:34:50.302Z,9.25
2023-05-08T01:37:30.639Z,7.28
2023-05-08T01:40:12.302Z,7.90
2023-05-08T01:42:51.526Z,8.75
2023-05-08T01:45:27.818Z,6.55
2023-05-08T01:48:09.082Z,8.18
2023-05-08T01:50:43.404Z,9.73
2023-05-08T01:53:23.905Z,7.00
2023-05-08T01:55:58.883Z,6.90
2023-05-08T01:58:29.331Z,8.65
2023-05-08T02:01:01.027Z,7.57
2023-05-08T02:03:33.413Z,7.30
2023-05-08T02:06:04.328Z,8.13
2023-05-08T02:08:36.011Z,8.45
2023-05-08T02:11:07.856Z,11.27
2023-05-08T02:13:38.327Z,8.60
2023-05-08T02:16:12.372Z,7.00
2023-05-08T02:18:52.114Z,7.65
2023-05-08T02:21:21.665Z,7.75
2023-05-08T02:23:51.842Z,8.30
2023-05-08T02:26:23.082Z,7.78
2023-05-08T02:28:56.316Z,10.45
2023-05-08T02:31:25.436Z,9.00
2023-05-08T02:33:55.419Z,7.25
2023-05-08T02:36:25.089Z,8.50
2023-05-08T02:38:59.272Z,7.53
2023-05-08T02:41:31.790Z,8.57
2023-05-08T02:44:00.301Z,8.35
2023-05-08T02:46:40.474Z,7.57
2023-05-08T02:49:23.858Z,7.35
2023-05-08T02:52:00.997Z,6.80
2023-05-08T02:54:39.339Z,7.10
2023-05-08T02:57:19.739Z,7.13
2023-05-08T03:00:00.521Z,5.78
2023-05-08T03:02:40.168Z,6.57
2023-05-08T03:05:16.538Z,8.60
2023-05-08T03:07:50.688Z,8.63
2023-05-08T03:10:23.242Z,8.30
2023-05-08T03:12:55.380Z,6.93
2023-05-08T03:15:31.085Z,7.57
2023-05-08T03:18:07.388Z,7.13
2023-05-08T03:20:42.761Z,7.45
2023-05-08T03:23:14.967Z,7.03
2023-05-08T03:25:45.254Z,11.20
2023-05-08T03:28:16.061Z,7.80
2023-05-08T03:30:45.004Z,7.57
2023-05-08T03:33:17.865Z,9.00
2023-05-08T03:35:50.204Z,9.00
2023-05-08T03:38:18.524Z,9.15
2023-05-08T03:40:47.412Z,8.15
2023-05-08T03:43:19.013Z,9.15
2023-05-08T03:45:48.503Z,7.97
2023-05-08T03:48:19.472Z,9.25
2023-05-08T03:50:49.968Z,7.65
2023-05-08T03:53:18.370Z,7.13
2023-05-08T03:55:46.967Z,10.15
2023-05-08T03:58:25.586Z,7.63
2023-05-08T04:01:12.890Z,8.45
2023-05-08T04:03:55.585Z,8.00
2023-05-08T04:06:42.008Z,7.57
2023-05-08T04:09:20.823Z,8.23
2023-05-08T04:12:03.401Z,7.20
2023-05-08T04:14:45.215Z,6.65
2023-05-08T04:17:23.377Z,7.65
2023-05-08T04:20:03.911Z,8.65
2023-05-08T04:22:37.045Z,8.25
2023-05-08T04:25:18.574Z,8.45
2023-05-08T04:27:55.004Z,7.45
2023-05-08T04:30:24.216Z,8.07
2023-05-08T04:32:55.673Z,11.45
2023-05-08T04:35:50.545Z,8.10
2023-05-08T04:38:20.957Z,7.75
2023-05-08T04:40:49.202Z,7.82
2023-05-08T04:43:17.465Z,8.65
2023-05-08T04:45:45.668Z,7.40
2023-05-08T04:48:16.814Z,11.57
2023-05-08T04:50:44.968Z,8.32
2023-05-08T04:53:13.582Z,8.25
2023-05-08T04:55:43.496Z,8.73
2023-05-08T04:58:12.280Z,11.93
2023-05-08T05:00:40.413Z,10.75
2023-05-08T05:03:09.391Z,8.88
2023-05-08T05:05:38.790Z,8.43
2023-05-08T05:08:07.806Z,8.57
2023-05-08T05:10:36.204Z,11.48
2023-05-08T05:13:05.772Z,8.38
2023-05-08T05:15:34.518Z,10.80
2023-05-08T05:18:02.750Z,9.45
2023-05-08T05:20:31.158Z,8.63
2023-05-08T05:23:00.317Z,7.78
2023-05-08T05:25:28.549Z,10.77
2023-05-08T05:27:56.780Z,9.55
2023-05-08T05:30:27.005Z,10.52
2023-05-08T05:32:55.268Z,9.48
2023-05-08T05:35:25.751Z,10.63
2023-05-08T05:37:54.988Z,11.32
2023-05-08T05:40:23.224Z,9.65
2023-05-08T05:42:52.172Z,10.30
2023-05-08T05:45:21.449Z,10.70
2023-05-08T05:47:53.965Z,8.90
2023-05-08T05:50:24.056Z,10.65
2023-05-08T05:52:52.739Z,12.63
2023-05-08T05:55:22.038Z,10.25
2023-05-08T05:57:50.414Z,10.52
2023-05-08T06:00:21.481Z,9.40
2023-05-08T06:02:55.437Z,9.43
2023-05-08T06:05:24.066Z,8.60
2023-05-08T06:07:52.844Z,10.65
2023-05-08T06:10:21.105Z,10.48
2023-05-08T06:12:49.282Z,10.48
2023-05-08T06:15:18.454Z,9.18
2023-05-08T06:17:48.034Z,9.27
2023-05-08T06:20:17.836Z,10.90
2023-05-08T06:22:45.985Z,8.90
2023-05-08T06:25:14.320Z,10.73
2023-05-08T06:27:42.706Z,9.88
2023-05-08T06:30:12.314Z,9.88
2023-05-08T06:32:40.468Z,11.07
2023-05-08T06:35:10.213Z,8.68
2023-05-08T06:37:40.239Z,9.80
2023-05-08T06:40:15.598Z,9.00
2023-05-08T06:42:43.809Z,8.95
2023-05-08T06:45:13.641Z,8.60
2023-05-08T06:47:41.991Z,11.23
2023-05-08T06:50:11.307Z,11.57
2023-05-08T06:52:40.959Z,9.05
2023-05-08T06:55:10.093Z,10.80
2023-05-08T06:57:38.247Z,9.50
2023-05-08T07:00:07.897Z,10.60
2023-05-08T07:02:36.124Z,9.13
2023-05-08T07:05:04.855Z,12.65
2023-05-08T07:07:33.180Z,13.98
2023-05-08T07:10:02.914Z,9.63
2023-05-08T07:12:31.056Z,12.68
2023-05-08T07:14:59.681Z,11.00
2023-05-08T07:17:30.797Z,11.88
2023-05-08T07:19:58.988Z,9.60
2023-05-08T07:22:27.194Z,9.00
2023-05-08T07:24:55.321Z,11.10
2023-05-08T07:27:24.902Z,14.85
2023-05-08T07:29:53.744Z,9.70
2023-05-08T07:32:21.929Z,8.25
2023-05-08T07:34:50.158Z,13.43
2023-05-08T07:37:18.456Z,16.17
2023-05-08T07:39:47.424Z,11.48
2023-05-08T07:42:15.616Z,10.23
2023-05-08T07:44:53.541Z,10.50
2023-05-08T07:47:23.311Z,10.85
2023-05-08T07:49:51.425Z,10.18
2023-05-08T07:52:19.496Z,11.07
2023-05-08T07:54:47.731Z,12.25
2023-05-08T07:57:15.937Z,11.85
2023-05-08T07:59:45.506Z,11.95
2023-05-08T08:02:14.318Z,10.38
2023-05-08T08:04:42.508Z,12.60
2023-05-08T08:07:10.646Z,13.18
2023-05-08T08:09:38.763Z,12.07
2023-05-08T08:12:07.196Z,10.43
2023-05-08T08:14:35.346Z,15.52
2023-05-08T08:17:04.850Z,11.52
2023-05-08T08:19:33.091Z,11.93
2023-05-08T08:22:01.268Z,13.48
2023-05-08T08:24:29.737Z,11.90
2023-05-08T08:26:58.060Z,12.95
2023-05-08T08:29:26.549Z,13.90
2023-05-08T08:31:54.696Z,9.30
2023-05-08T08:34:24.561Z,13.25
2023-05-08T08:36:52.781Z,11.43
2023-05-08T08:39:21.123Z,11.68
2023-05-08T08:41:49.381Z,11.32
2023-05-08T08:44:17.666Z,11.85
2023-05-08T08:46:52.854Z,10.65
2023-05-08T08:49:31.933Z,10.90
2023-05-08T08:52:04.044Z,11.18
2023-05-08T08:54:37.075Z,11.50
2023-05-08T08:57:08.994Z,12.70
2023-05-08T08:59:41.598Z,9.82
2023-05-08T09:02:17.701Z,10.13
2023-05-08T09:04:50.814Z,11.82
2023-05-08T09:07:19.585Z,13.48
2023-05-08T09:09:49.096Z,11.48
2023-05-08T09:12:17.394Z,12.20
2023-05-08T09:14:45.686Z,12.13
2023-05-08T09:17:14.214Z,12.23
2023-05-08T09:19:43.137Z,10.40
2023-05-08T09:22:14.150Z,10.82
2023-05-08T09:25:00.241Z,10.32
2023-05-08T09:27:30.750Z,10.57
2023-05-08T09:30:05.833Z,11.55
2023-05-08T09:32:37.155Z,9.00
2023-05-08T09:35:08.084Z,9.70
2023-05-08T09:37:41.209Z,10.20
2023-05-08T09:40:18.713Z,9.02
2023-05-08T09:42:47.525Z,10.55
2023-05-08T09:45:29.620Z,9.55
2023-05-08T09:47:58.199Z,8.30
2023-05-08T09:50:27.266Z,8.27
2023-05-08T09:52:57.654Z,9.15
2023-05-08T09:55:26.136Z,8.63
2023-05-08T09:57:57.640Z,8.98
2023-05-08T10:00:27.539Z,9.38
2023-05-08T10:02:59.424Z,9.25
2023-05-08T10:05:31.753Z,8.18
2023-05-08T10:08:21.045Z,9.65
2023-05-08T10:10:49.528Z,10.52
2023-05-08T10:13:18.157Z,8.10
2023-05-08T10:15:50.161Z,8.90
2023-05-08T10:18:21.743Z,8.98
2023-05-08T10:20:52.136Z,9.45
2023-05-08T10:23:23.461Z,10.90
2023-05-08T10:26:05.334Z,9.27
2023-05-08T10:28:41.649Z,9.48
2023-05-08T10:31:18.675Z,12.02
2023-05-08T10:33:51.754Z,9.70
2023-05-08T10:36:20.189Z,10.55
2023-05-08T10:38:51.662Z,9.00
2023-05-08T10:41:21.513Z,12.27
2023-05-08T10:43:51.410Z,10.18
2023-05-08T10:46:44.532Z,7.68
2023-05-08T10:49:24.220Z,6.18
2023-05-08T10:52:09.327Z,9.65
2023-05-08T10:55:20.254Z,10.82
2023-05-08T10:58:11.593Z,13.73
2023-05-08T11:01:18.163Z,10.88
2023-05-08T11:03:55.220Z,10.70
2023-05-08T11:06:44.931Z,11.15
2023-05-08T11:09:22.871Z,13.50
2023-05-08T11:12:22.843Z,10.75
2023-05-08T11:15:02.884Z,10.50
2023-05-08T11:17:31.666Z,11.02
2023-05-08T11:20:02.517Z,9.70
2023-05-08T11:22:33.306Z,14.13
2023-05-08T11:25:06.415Z,12.50
2023-05-08T11:28:02.122Z,11.48
2023-05-08T11:30:39.826Z,11.40
2023-05-08T11:33:16.568Z,10.60
2023-05-08T11:35:52.556Z,9.10
2023-05-08T11:38:31.119Z,9.15
2023-05-08T11:41:02.570Z,9.98
2023-05-08T11:44:21.815Z,11.80
2023-05-08T11:46:56.426Z,10.98
2023-05-08T11:49:29.835Z,11.55
2023-05-08T11:52:00.958Z,9.65
2023-05-08T11:54:32.629Z,10.27
2023-05-08T11:57:06.557Z,13.60
2023-05-08T11:59:38.294Z,9.38
2023-05-08T12:02:09.132Z,11.48
2023-05-08T12:04:46.658Z,9.55
2023-05-08T12:07:16.201Z,9.98
2023-05-08T12:09:44.746Z,9.85
2023-05-08T12:12:13.093Z,7.20
2023-05-08T12:14:42.968Z,9.18
2023-05-08T12:17:11.959Z,10.77
2023-05-08T12:19:40.590Z,11.25
2023-05-08T12:22:10.814Z,8.55
2023-05-08T12:24:40.732Z,9.73
2023-05-08T12:27:10.006Z,11.20
2023-05-08T12:29:39.128Z,12.60
2023-05-08T12:32:09.063Z,12.10
2023-05-08T12:34:37.851Z,15.52
2023-05-08T12:37:06.653Z,12.80
2023-05-08T12:39:38.642Z,17.60
2023-05-08T12:42:07.136Z,14.85
2023-05-08T12:44:35.457Z,14.80
2023-05-08T12:47:06.213Z,15.18
2023-05-08T12:49:36.122Z,15.25
2023-05-08T12:52:07.120Z,13.32
2023-05-08T12:54:41.471Z,14.88
2023-05-08T12:57:13.762Z,10.50
2023-05-08T12:59:43.181Z,13.55
2023-05-08T13:02:27.580Z,14.43
2023-05-08T13:04:58.056Z,11.90
2023-05-08T13:07:33.074Z,11.27
2023-05-08T13:10:04.963Z,11.82
2023-05-08T13:12:33.842Z,12.70
2023-05-08T13:15:04.799Z,11.65
2023-05-08T13:17:33.333Z,9.65
2023-05-08T13:20:05.977Z,10.38
2023-05-08T13:22:42.244Z,9.65
2023-05-08T13:25:11.276Z,9.48
2023-05-08T13:27:39.896Z,10.38
2023-05-08T13:30:13.776Z,9.98
2023-05-08T13:32:42.461Z,7.57
2023-05-08T13:35:12.328Z,8.13
2023-05-08T13:37:40.846Z,8.63
2023-05-08T13:40:10.563Z,9.55
2023-05-08T13:42:39.360Z,10.07
2023-05-08T13:45:10.788Z,11.40
2023-05-08T13:47:39.241Z,9.07
2023-05-08T13:50:10.219Z,10.63
2023-05-08T13:52:41.839Z,14.23
2023-05-08T13:55:12.819Z,11.07
2023-05-08T13:57:42.118Z,11.32
2023-05-08T14:00:12.821Z,10.98
2023-05-08T14:02:41.060Z,9.30
2023-05-08T14:05:10.118Z,9.18
2023-05-08T14:07:41.632Z,10.82
2023-05-08T14:10:11.154Z,12.75
2023-05-08T14:12:40.272Z,11.95
2023-05-08T14:15:11.621Z,11.70
2023-05-08T14:17:40.271Z,13.40
2023-05-08T14:20:11.548Z,13.90
2023-05-08T14:22:41.504Z,12.25
2023-05-08T14:25:11.236Z,10.15
2023-05-08T14:27:39.487Z,12.90
2023-05-08T14:30:09.655Z,12.05
2023-05-08T14:32:38.017Z,13.40
2023-05-08T14:35:09.560Z,12.05
2023-05-08T14:37:38.159Z,12.27
2023-05-08T14:40:10.291Z,14.38
2023-05-08T14:42:41.654Z,11.18
2023-05-08T14:45:20.113Z,8.70
2023-05-08T14:48:09.208Z,11.45
2023-05-08T15:10:06.388Z,7.88
2023-05-08T15:12:34.852Z,8.65
2023-05-08T15:15:04.643Z,6.10
2023-05-08T15:17:35.291Z,6.68
2023-05-08T15:20:04.849Z,6.95
2023-05-08T15:22:33.296Z,9.60
2023-05-08T15:25:07.567Z,7.22
2023-05-08T15:27:35.823Z,8.40
2023-05-08T15:30:04.307Z,8.65
2023-05-08T15:32:32.700Z,9.68
2023-05-08T15:35:00.863Z,11.38
2023-05-08T15:37:29.754Z,8.90
2023-05-08T15:40:00.185Z,8.32
2023-05-08T15:42:30.083Z,8.50
2023-05-08T15:44:58.562Z,8.57
2023-05-08T15:47:27.765Z,8.88
2023-05-08T15:49:56.208Z,6.68
2023-05-08T15:52:24.642Z,6.95
2023-05-08T15:54:53.539Z,5.97
2023-05-08T15:57:21.817Z,7.18
2023-05-08T15:59:51.632Z,7.50
2023-05-08T16:02:20.101Z,6.68
2023-05-08T16:04:48.977Z,7.28
2023-05-08T16:07:37.754Z,7.03
2023-05-08T16:10:07.974Z,6.25
2023-05-08T16:12:36.435Z,8.48
2023-05-08T16:15:07.153Z,8.23
2023-05-08T16:17:35.845Z,6.93
2023-05-08T16:20:04.504Z,5.43
2023-05-08T16:22:32.985Z,6.28
2023-05-08T16:25:26.561Z,5.40
2023-05-08T16:27:55.023Z,4.85
2023-05-08T16:30:24.882Z,4.75
2023-05-08T16:32:53.605Z,6.05
2023-05-08T16:35:23.072Z,6.15
2023-05-08T16:37:51.559Z,7.05
2023-05-08T16:40:20.128Z,5.18
2023-05-08T16:42:48.526Z,5.38
2023-05-08T16:45:16.996Z,4.60
2023-05-08T16:47:46.883Z,4.28
2023-05-08T16:50:15.347Z,5.18
2023-05-08T16:52:43.707Z,4.13
2023-05-08T16:55:12.090Z,5.47
2023-05-08T16:57:40.954Z,3.28
2023-05-08T17:00:10.608Z,3.78
2023-05-08T17:02:40.279Z,2.95
2023-05-08T17:05:11.444Z,2.63
2023-05-08T17:07:40.705Z,3.10
2023-05-08T17:10:10.608Z,2.35
2023-05-08T17:12:38.941Z,2.00
2023-05-08T17:15:08.862Z,3.58
2023-05-08T17:17:37.228Z,1.95
2023-05-08T17:20:07.218Z,2.10
2023-05-08T17:22:37.204Z,2.97
2023-05-08T17:25:06.428Z,2.20
2023-05-08T17:27:35.932Z,1.85
2023-05-08T17:30:04.941Z,2.63
2023-05-08T17:32:33.728Z,2.00
2023-05-08T17:35:02.423Z,2.22
2023-05-08T17:37:34.372Z,2.83
2023-05-08T17:40:07.994Z,3.22
2023-05-08T17:42:37.283Z,6.50
2023-05-08T17:45:08.992Z,3.20
2023-05-08T17:47:48.353Z,3.40
2023-05-08T17:50:26.101Z,3.05
2023-05-08T17:53:21.164Z,3.30
2023-05-08T17:59:26.227Z,3.15
2023-05-08T18:05:35.258Z,3.28
2023-05-08T18:09:41.154Z,3.40
2023-05-08T18:12:30.569Z,3.42
2023-05-08T18:15:08.785Z,3.90
2023-05-08T18:17:40.037Z,3.10
2023-05-08T18:20:17.710Z,4.43
2023-05-08T18:22:52.076Z,3.20
2023-05-08T18:25:20.923Z,3.20
2023-05-08T18:28:28.890Z,4.28
2023-05-08T18:31:13.486Z,5.95
2023-05-08T18:34:33.528Z,4.20
2023-05-08T18:37:30.872Z,5.45
2023-05-08T18:40:05.036Z,4.68
2023-05-08T18:43:25.364Z,3.33
2023-05-08T18:50:13.609Z,3.67
2023-05-08T18:52:47.900Z,4.13
2023-05-08T18:55:20.591Z,4.40
2023-05-08T18:57:51.460Z,3.78
2023-05-08T19:00:48.012Z,3.30
2023-05-08T19:03:35.418Z,3.42
2023-05-08T19:06:04.258Z,5.93
2023-05-08T19:08:34.582Z,4.70
2023-05-08T19:11:03.309Z,3.80
2023-05-08T19:13:42.648Z,3.70
2023-05-08T19:16:20.682Z,3.92
2023-05-08T19:18:50.701Z,4.07
2023-05-08T19:21:29.643Z,3.17
2023-05-08T19:23:58.535Z,3.80
2023-05-08T19:26:27.854Z,4.15
2023-05-08T19:29:07.849Z,5.38
2023-05-08T19:32:06.550Z,5.07
2023-05-08T19:34:40.039Z,4.35
2023-05-08T19:37:09.229Z,3.63
2023-05-08T19:39:43.011Z,7.28
2023-05-08T19:42:26.190Z,5.00
2023-05-08T19:53:19.669Z,4.13
2023-05-08T19:55:49.370Z,5.30
2023-05-08T19:58:18.479Z,7.70
2023-05-08T20:00:53.472Z,6.32
2023-05-08T20:03:22.115Z,4.05
2023-05-08T20:05:53.082Z,5.13
2023-05-08T20:08:23.138Z,5.78
2023-05-08T20:10:52.683Z,3.95
2023-05-08T20:13:21.385Z,3.88
2023-05-08T20:15:49.909Z,4.13
2023-05-08T20:18:18.427Z,6.05
2023-05-08T20:20:47.858Z,6.18
2023-05-08T20:23:16.225Z,4.63
2023-05-08T20:25:47.746Z,3.70
2023-05-08T20:28:22.021Z,5.95
2023-05-08T20:30:54.410Z,5.15
2023-05-08T20:33:22.950Z,3.72
2023-05-08T20:35:51.322Z,3.95
2023-05-08T20:38:19.940Z,5.38
2023-05-08T20:40:49.722Z,4.03
2023-05-08T20:43:19.364Z,5.93
2023-05-08T20:45:49.092Z,5.47
2023-05-08T20:48:17.562Z,4.93
2023-05-08T20:50:48.501Z,6.07
2023-05-08T20:53:17.080Z,5.28
2023-05-08T20:55:45.520Z,5.07
2023-05-08T20:58:15.151Z,6.10
2023-05-08T21:00:43.587Z,4.82
2023-05-08T21:03:11.909Z,4.35
2023-05-08T21:05:40.212Z,7.38
2023-05-08T21:08:08.718Z,4.03
2023-05-08T21:10:37.132Z,5.35
2023-05-08T21:13:06.144Z,5.40
2023-05-08T21:15:35.964Z,6.20
2023-05-08T21:18:04.614Z,5.18
2023-05-08T21:20:34.328Z,4.35
2023-05-08T21:23:02.713Z,6.05
2023-05-08T21:25:31.054Z,5.30
2023-05-08T21:27:59.634Z,4.72
2023-05-08T21:30:27.869Z,5.07
2023-05-08T21:32:57.663Z,5.63
2023-05-08T21:35:25.960Z,5.97
2023-05-08T21:37:54.830Z,6.15
2023-05-08T21:40:23.386Z,4.82
2023-05-08T21:42:54.277Z,5.20
2023-05-08T21:45:23.034Z,5.55
2023-05-08T21:47:51.653Z,5.95
2023-05-08T21:50:21.788Z,6.72
2023-05-08T21:52:50.974Z,6.78
2023-05-08T21:55:19.795Z,6.63
2023-05-08T21:57:48.135Z,6.03
2023-05-08T22:00:17.698Z,7.45
2023-05-08T22:02:49.122Z,9.00
2023-05-08T22:05:17.631Z,5.55
2023-05-08T22:07:47.559Z,6.20
2023-05-08T22:10:16.016Z,6.60
2023-05-08T22:12:44.310Z,8.80
2023-05-08T22:15:25.547Z,6.78
2023-05-08T22:17:57.296Z,6.57
2023-05-08T22:20:25.986Z,6.93
2023-05-08T22:22:55.872Z,5.95
2023-05-08T22:25:25.224Z,7.80
2023-05-08T22:27:53.885Z,7.22
2023-05-08T22:30:22.514Z,7.32
2023-05-08T22:32:56.078Z,8.27
2023-05-08T22:35:26.939Z,7.95
2023-05-08T22:37:58.026Z,7.53
2023-05-08T22:40:27.305Z,8.80
2023-05-08T22:42:58.696Z,8.95
2023-05-08T22:45:27.935Z,9.00
2023-05-08T22:47:57.137Z,7.72
2023-05-08T22:50:25.535Z,8.30
2023-05-08T22:52:53.827Z,7.90
2023-05-08T22:55:23.847Z,10.10
2023-05-08T22:57:52.184Z,7.93
2023-05-08T23:00:21.652Z,9.73
2023-05-08T23:02:50.157Z,10.32
2023-05-08T23:05:18.685Z,9.80
2023-05-08T23:07:47.202Z,9.10
2023-05-08T23:10:15.918Z,9.45
2023-05-08T23:12:45.722Z,8.25
2023-05-08T23:15:14.543Z,8.05
2023-05-08T23:17:43.169Z,7.47
2023-05-08T23:20:12.727Z,8.38
2023-05-08T23:22:41.069Z,8.98
2023-05-08T23:25:12.025Z,9.65
2023-05-08T23:27:40.601Z,9.68
2023-05-08T23:30:13.007Z,11.15
2023-05-08T23:32:41.571Z,10.23
2023-05-08T23:35:10.502Z,10.85
2023-05-08T23:37:39.058Z,8.77
2023-05-08T23:40:10.167Z,9.57
2023-05-08T23:42:39.701Z,9.18
2023-05-08T23:45:12.098Z,8.93
2023-05-08T23:47:40.647Z,8.88
2023-05-08T23:50:09.624Z,10.80
2023-05-08T23:52:38.072Z,9.68
2023-05-08T23:55:07.688Z,10.52
2023-05-08T23:57:36.109Z,9.25
